Time;durP1;ratioP1;P1;durP2;ratioP2;P2;SDS_P1;SDS_P2;PMS_P1;PMS_P2;Temp;Humidity;BMP_temperature;BMP_pressure;BME280_temperature;BME280_humidity;BME280_pressure;Samples;Min_cycle;Max_cycle;Signal;HPM_P1;HPM_P2
2024/01/20 00:02:01;;;;;;;17.37;16.13;;;2.30;87.80;;;;;;5054792;28;20176;-88
2024/01/20 00:04:27;;;;;;;17.30;15.80;;;2.40;87.70;;;;;;5054429;28;20208;-88
2024/01/20 00:06:52;;;;;;;24.60;16.17;;;2.30;87.80;;;;;;5054346;28;20203;-88
2024/01/20 00:09:17;;;;;;;18.13;16.40;;;2.40;87.60;;;;;;5054346;28;20185;-88
2024/01/20 00:11:43;;;;;;;17.40;15.60;;;2.40;87.20;;;;;;5055558;28;20180;-88
2024/01/20 00:14:08;;;;;;;16.93;15.53;;;2.30;87.60;;;;;;5053492;28;20180;-87
2024/01/20 00:16:34;;;;;;;16.33;14.93;;;2.30;87.90;;;;;;5054242;28;20223;-88
2024/01/20 00:18:59;;;;;;;17.33;15.23;;;2.30;87.80;;;;;;5054308;28;20180;-87
2024/01/20 00:21:25;;;;;;;16.03;14.60;;;2.30;87.60;;;;;;5055703;28;20667;-88
2024/01/20 00:23:50;;;;;;;16.97;15.40;;;2.30;87.70;;;;;;5054299;28;20207;-88
2024/01/20 00:26:16;;;;;;;28.40;16.27;;;2.30;87.80;;;;;;5054237;28;20200;-88
2024/01/20 00:28:42;;;;;;;19.17;17.33;;;2.30;87.90;;;;;;5055435;28;20167;-88
2024/01/20 00:31:07;;;;;;;17.67;15.10;;;2.30;87.80;;;;;;5054127;28;20172;-88
2024/01/20 00:33:33;;;;;;;16.53;15.23;;;2.40;87.60;;;;;;5054350;28;20172;-87
2024/01/20 00:35:58;;;;;;;17.23;15.40;;;2.30;87.80;;;;;;5054238;28;20219;-88
2024/01/20 00:38:25;;;;;;;17.63;14.83;;;2.40;87.60;;;;;;5054703;28;20226;-88
2024/01/20 00:40:51;;;;;;;16.27;14.83;;;2.30;87.80;;;;;;5054436;28;20566;-88
2024/01/20 00:43:17;;;;;;;29.70;26.97;;;2.30;88.00;;;;;;5055530;28;20200;-88
2024/01/20 00:45:42;;;;;;;30.80;27.70;;;2.30;87.80;;;;;;5054263;28;20193;-88
2024/01/20 00:48:08;;;;;;;30.63;27.83;;;2.30;87.60;;;;;;5054654;28;20176;-88
2024/01/20 00:50:34;;;;;;;30.07;27.53;;;2.40;87.60;;;;;;5053983;28;20168;-88
2024/01/20 00:52:59;;;;;;;29.63;27.33;;;2.40;87.60;;;;;;5054479;28;20267;-88
2024/01/20 00:55:25;;;;;;;30.40;27.97;;;2.40;87.60;;;;;;5054097;28;20202;-88
2024/01/20 00:57:50;;;;;;;30.23;27.90;;;2.30;87.90;;;;;;5054257;28;20178;-88
2024/01/20 01:00:16;;;;;;;30.10;27.83;;;2.30;88.10;;;;;;5054297;28;20172;-88
2024/01/20 01:02:42;;;;;;;29.93;27.23;;;2.30;87.90;;;;;;5053579;28;20235;-88
2024/01/20 01:05:08;;;;;;;29.27;26.67;;;2.30;88.00;;;;;;5053843;28;20211;-88
2024/01/20 01:07:34;;;;;;;31.60;28.83;;;2.40;87.70;;;;;;5053359;28;20191;-88
2024/01/20 01:10:00;;;;;;;30.93;27.90;;;2.30;87.80;;;;;;5053354;28;20632;-88
2024/01/20 01:12:26;;;;;;;30.70;28.13;;;2.30;88.20;;;;;;5053964;28;20203;-87
2024/01/20 01:14:52;;;;;;;29.50;27.50;;;2.30;88.20;;;;;;5056453;28;20204;-88
2024/01/20 01:17:18;;;;;;;30.97;28.37;;;2.40;87.80;;;;;;5054568;28;20646;-87
2024/01/20 01:19:43;;;;;;;31.23;28.70;;;2.30;87.90;;;;;;5053805;28;20187;-88
2024/01/20 01:22:09;;;;;;;29.33;27.10;;;2.30;87.80;;;;;;5053406;28;20184;-89
2024/01/20 01:24:35;;;;;;;31.77;28.37;;;2.30;87.90;;;;;;5053287;28;20208;-89
2024/01/20 01:27:00;;;;;;;31.53;28.67;;;2.30;87.80;;;;;;5052733;28;20787;-89
2024/01/20 01:29:26;;;;;;;27.47;25.20;;;2.30;87.90;;;;;;5052702;28;20180;-88
2024/01/20 01:31:51;;;;;;;30.33;28.17;;;2.30;87.80;;;;;;5052952;28;20274;-89
2024/01/20 01:34:17;;;;;;;31.37;28.30;;;2.30;87.80;;;;;;5052961;28;20184;-88
2024/01/20 01:36:43;;;;;;;30.03;27.63;;;2.30;87.80;;;;;;5052861;28;20297;-88
2024/01/20 01:39:09;;;;;;;31.60;28.93;;;2.30;87.70;;;;;;5053315;28;20632;-88
2024/01/20 01:41:35;;;;;;;19.97;17.67;;;2.30;87.80;;;;;;5053385;28;20183;-88
2024/01/20 01:44:01;;;;;;;21.63;17.93;;;2.20;88.00;;;;;;5053053;28;20211;-88
2024/01/20 01:46:27;;;;;;;18.20;16.67;;;2.30;88.20;;;;;;5053691;28;20199;-88
2024/01/20 01:48:52;;;;;;;21.53;16.70;;;2.30;87.90;;;;;;5053362;28;20606;-88
2024/01/20 01:51:18;;;;;;;20.33;16.90;;;2.30;88.00;;;;;;5053236;28;20179;-88
2024/01/20 01:53:44;;;;;;;19.27;17.33;;;2.20;88.20;;;;;;5054925;28;20172;-88
2024/01/20 01:56:11;;;;;;;18.80;17.00;;;2.20;88.20;;;;;;5053313;28;20210;-88
2024/01/20 01:58:36;;;;;;;17.63;16.07;;;2.30;87.90;;;;;;5053043;28;20186;-88
2024/01/20 02:01:02;;;;;;;19.03;17.37;;;2.20;88.10;;;;;;5053645;28;20176;-88
2024/01/20 02:03:27;;;;;;;19.27;17.13;;;2.20;88.20;;;;;;5053058;28;20668;-88
2024/01/20 02:05:53;;;;;;;24.77;18.70;;;2.20;88.30;;;;;;5053062;28;20195;-88
2024/01/20 02:08:20;;;;;;;21.03;17.40;;;2.20;88.30;;;;;;5052987;28;20183;-88
2024/01/20 02:10:49;;;;;;;19.83;17.80;;;2.20;88.40;;;;;;5053259;28;20183;-88
2024/01/20 02:13:15;;;;;;;19.20;17.47;;;2.30;88.30;;;;;;5053471;28;20279;-88
2024/01/20 02:15:41;;;;;;;18.70;16.80;;;2.20;88.10;;;;;;5052960;28;20477;-88
2024/01/20 02:18:06;;;;;;;17.20;15.80;;;2.30;88.10;;;;;;5054792;28;20179;-88
2024/01/20 02:20:32;;;;;;;17.97;16.70;;;2.20;88.20;;;;;;5054721;28;20656;-88
2024/01/20 02:22:57;;;;;;;20.20;18.13;;;2.30;88.10;;;;;;5051973;28;20200;-88
2024/01/20 02:25:23;;;;;;;19.73;18.00;;;2.20;87.90;;;;;;5053158;28;20186;-88
2024/01/20 02:27:49;;;;;;;17.63;16.37;;;2.20;88.30;;;;;;5051858;28;20220;-87
2024/01/20 02:30:14;;;;;;;20.20;17.97;;;2.10;88.40;;;;;;5052002;28;20701;-88
2024/01/20 02:32:40;;;;;;;18.70;16.97;;;2.10;88.60;;;;;;5053195;28;20574;-88
2024/01/20 02:35:06;;;;;;;23.83;21.10;;;2.10;88.60;;;;;;5052304;28;20183;-88
2024/01/20 02:37:32;;;;;;;23.73;19.43;;;2.10;88.70;;;;;;5054804;28;20586;-88
2024/01/20 02:39:57;;;;;;;19.47;17.87;;;2.10;88.80;;;;;;5055897;28;20172;-88
2024/01/20 02:42:23;;;;;;;22.40;18.37;;;2.00;88.90;;;;;;5056530;28;20638;-87
2024/01/20 02:44:50;;;;;;;17.83;16.33;;;2.10;88.70;;;;;;5055863;28;20183;-88
2024/01/20 02:47:15;;;;;;;19.17;17.33;;;2.10;88.70;;;;;;5055771;28;20196;-88
2024/01/20 02:49:41;;;;;;;28.00;19.10;;;2.10;88.80;;;;;;5056859;28;20176;-88
2024/01/20 02:52:06;;;;;;;32.50;19.17;;;2.10;88.70;;;;;;5055896;28;20630;-87
2024/01/20 02:54:32;;;;;;;22.60;18.07;;;2.00;88.80;;;;;;5056057;28;20175;-88
2024/01/20 02:56:57;;;;;;;24.00;18.33;;;2.00;88.90;;;;;;5055788;28;20211;-88
2024/01/20 02:59:23;;;;;;;21.70;19.10;;;2.00;89.00;;;;;;5055432;28;20568;-88
2024/01/20 03:01:48;;;;;;;19.63;17.40;;;2.00;89.00;;;;;;5055430;28;20179;-88
2024/01/20 03:04:15;;;;;;;23.10;19.33;;;2.10;88.70;;;;;;5055649;28;20209;-87
2024/01/20 03:06:41;;;;;;;31.53;29.33;;;2.10;88.40;;;;;;5055865;28;20192;-88
2024/01/20 03:09:07;;;;;;;37.50;30.10;;;1.90;88.70;;;;;;5055648;28;20229;-88
2024/01/20 03:11:34;;;;;;;34.70;31.67;;;2.00;88.80;;;;;;5056504;28;20168;-88
2024/01/20 03:13:59;;;;;;;34.57;30.93;;;1.90;88.90;;;;;;5055286;28;20179;-87
2024/01/20 03:16:25;;;;;;;33.70;30.67;;;1.90;89.10;;;;;;5055163;28;20195;-88
2024/01/20 03:18:50;;;;;;;35.17;32.13;;;1.80;89.20;;;;;;5055924;28;20233;-88
2024/01/20 03:21:16;;;;;;;32.83;30.17;;;1.80;89.30;;;;;;5055261;28;20530;-88
2024/01/20 03:23:42;;;;;;;33.60;30.87;;;1.80;89.30;;;;;;5054969;28;20202;-87
2024/01/20 03:26:08;;;;;;;35.93;32.57;;;1.80;89.40;;;;;;5054960;28;20188;-88
2024/01/20 03:28:34;;;;;;;34.60;31.20;;;1.80;89.60;;;;;;5054935;28;20648;-87
2024/01/20 03:31:00;;;;;;;33.10;29.90;;;1.70;89.70;;;;;;5055300;28;20183;-88
2024/01/20 03:33:26;;;;;;;32.33;29.57;;;1.70;89.70;;;;;;5055929;28;20628;-87
2024/01/20 03:35:51;;;;;;;33.00;29.97;;;1.70;89.70;;;;;;5054584;28;20302;-87
2024/01/20 03:38:18;;;;;;;32.00;28.93;;;1.70;89.70;;;;;;5056184;28;20684;-87
2024/01/20 03:40:44;;;;;;;34.80;31.37;;;1.70;89.60;;;;;;5054746;28;20180;-87
2024/01/20 03:43:10;;;;;;;33.73;30.63;;;1.60;89.70;;;;;;5054712;28;20553;-87
2024/01/20 03:45:37;;;;;;;40.00;34.53;;;1.60;89.80;;;;;;5054933;28;20207;-87
2024/01/20 03:48:03;;;;;;;36.93;33.40;;;1.50;89.80;;;;;;5053927;28;20230;-88
2024/01/20 03:50:28;;;;;;;31.37;28.83;;;1.60;90.00;;;;;;5054644;28;20178;-87
2024/01/20 03:52:54;;;;;;;36.27;31.87;;;1.50;90.00;;;;;;5056071;28;20176;-87
2024/01/20 03:55:19;;;;;;;32.47;29.57;;;1.50;90.10;;;;;;5054542;28;20187;-87
2024/01/20 03:57:45;;;;;;;34.10;31.33;;;1.60;90.10;;;;;;5054528;28;20180;-87
2024/01/20 04:00:11;;;;;;;34.77;31.63;;;1.50;90.20;;;;;;5054450;28;20183;-87
2024/01/20 04:02:36;;;;;;;27.77;25.20;;;1.50;90.30;;;;;;5054260;28;20188;-87
2024/01/20 04:05:02;;;;;;;33.73;30.43;;;1.60;90.20;;;;;;5054538;28;20309;-87
2024/01/20 04:07:27;;;;;;;34.17;30.83;;;1.50;90.00;;;;;;5054104;28;20199;-87
2024/01/20 04:09:53;;;;;;;25.37;22.87;;;1.60;90.10;;;;;;5055031;28;20208;-87
2024/01/20 04:12:18;;;;;;;23.40;20.87;;;1.60;90.20;;;;;;5054210;28;20621;-87
2024/01/20 04:14:44;;;;;;;21.77;19.27;;;1.70;90.10;;;;;;5055334;28;20168;-87
2024/01/20 04:17:10;;;;;;;33.07;30.43;;;1.60;90.10;;;;;;5055162;28;20202;-87
2024/01/20 04:19:36;;;;;;;37.23;33.67;;;1.60;90.20;;;;;;5055256;28;20176;-87
2024/01/20 04:22:01;;;;;;;35.03;32.27;;;1.60;90.30;;;;;;5053947;28;20183;-87
2024/01/20 04:24:27;;;;;;;36.97;33.77;;;1.60;90.40;;;;;;5055468;28;20202;-87
2024/01/20 04:26:52;;;;;;;35.87;32.23;;;1.60;90.40;;;;;;5053926;28;20241;-87
2024/01/20 04:29:18;;;;;;;35.20;31.80;;;1.60;90.40;;;;;;5054748;28;20175;-87
2024/01/20 04:31:43;;;;;;;31.23;28.97;;;1.50;90.50;;;;;;5054117;28;20168;-87
2024/01/20 04:34:09;;;;;;;36.77;32.93;;;1.60;90.60;;;;;;5053777;28;20272;-87
2024/01/20 04:36:34;;;;;;;31.17;28.53;;;1.60;90.40;;;;;;5054664;28;20215;-87
2024/01/20 04:39:00;;;;;;;35.30;32.43;;;1.60;90.50;;;;;;5053745;28;20180;-87
2024/01/20 04:41:25;;;;;;;28.93;26.80;;;1.60;90.40;;;;;;5053844;28;20180;-87
2024/01/20 04:43:51;;;;;;;26.33;24.17;;;1.60;90.30;;;;;;5053427;28;20211;-87
2024/01/20 04:46:17;;;;;;;21.73;18.43;;;1.70;90.10;;;;;;5053429;28;20230;-87
2024/01/20 04:48:43;;;;;;;20.83;18.70;;;1.70;90.00;;;;;;5053431;28;20174;-87
2024/01/20 04:51:08;;;;;;;18.07;16.40;;;1.70;90.10;;;;;;5054672;28;20168;-87
2024/01/20 04:53:34;;;;;;;18.33;16.57;;;1.70;90.00;;;;;;5053560;28;20214;-87
2024/01/20 04:56:05;;;;;;;24.70;20.80;;;1.80;89.90;;;;;;5053597;28;20195;-87
2024/01/20 04:58:31;;;;;;;22.33;20.17;;;1.60;90.00;;;;;;5053308;28;20603;-87
2024/01/20 05:00:57;;;;;;;20.90;19.00;;;1.60;90.10;;;;;;5053094;28;20184;-87
2024/01/20 05:03:23;;;;;;;25.43;22.17;;;1.70;90.00;;;;;;5054617;28;20206;-87
2024/01/20 05:05:48;;;;;;;21.47;19.33;;;1.70;90.00;;;;;;5053659;28;20222;-87
2024/01/20 05:08:14;;;;;;;20.27;18.47;;;1.70;89.90;;;;;;5053071;28;20180;-87
2024/01/20 05:10:39;;;;;;;24.20;21.40;;;1.60;89.90;;;;;;5052972;28;20183;-87
2024/01/20 05:13:05;;;;;;;23.13;20.83;;;1.60;89.80;;;;;;5052892;28;20176;-87
2024/01/20 05:15:31;;;;;;;22.57;20.17;;;1.70;89.80;;;;;;5052985;28;20200;-86
2024/01/20 05:17:56;;;;;;;27.50;21.40;;;1.60;89.80;;;;;;5053050;28;20205;-87
2024/01/20 05:20:22;;;;;;;21.40;19.47;;;1.60;89.90;;;;;;5052883;28;20180;-87
2024/01/20 05:22:48;;;;;;;21.63;18.13;;;1.70;89.90;;;;;;5052759;28;20693;-87
2024/01/20 05:25:14;;;;;;;23.80;21.60;;;1.70;89.90;;;;;;5053099;28;20183;-87
2024/01/20 05:27:40;;;;;;;22.40;19.93;;;1.80;89.60;;;;;;5052786;28;20171;-87
2024/01/20 05:30:06;;;;;;;24.23;21.70;;;1.70;89.50;;;;;;5052659;28;20226;-87
2024/01/20 05:32:32;;;;;;;21.33;19.20;;;1.80;89.40;;;;;;5052687;28;20187;-87
2024/01/20 05:34:57;;;;;;;23.07;21.03;;;1.70;89.40;;;;;;5052516;28;20640;-87
2024/01/20 05:37:23;;;;;;;21.57;19.47;;;1.70;89.40;;;;;;5062752;22;20266;-87
2024/01/20 05:39:50;;;;;;;22.60;20.47;;;1.70;89.70;;;;;;5053574;28;20179;-87
2024/01/20 05:42:15;;;;;;;26.73;24.27;;;1.60;89.60;;;;;;5053837;28;20186;-87
2024/01/20 05:44:41;;;;;;;24.77;19.33;;;1.60;89.50;;;;;;5053857;28;20239;-88
2024/01/20 05:47:06;;;;;;;19.30;17.60;;;1.50;89.60;;;;;;5053610;28;20622;-87
2024/01/20 05:49:32;;;;;;;22.00;19.83;;;1.60;89.60;;;;;;5054844;28;20648;-87
2024/01/20 05:51:57;;;;;;;26.23;21.60;;;1.60;89.80;;;;;;5055056;28;20183;-88
2024/01/20 05:54:23;;;;;;;19.80;18.00;;;1.60;89.60;;;;;;5055165;28;20690;-88
2024/01/20 05:56:49;;;;;;;31.50;24.80;;;1.60;89.60;;;;;;5053469;28;20200;-87
2024/01/20 05:59:14;;;;;;;28.40;23.80;;;1.60;89.70;;;;;;5053340;28;20229;-87
2024/01/20 06:01:40;;;;;;;23.23;20.97;;;1.60;89.50;;;;;;5054257;28;20723;-87
2024/01/20 06:04:05;;;;;;;26.93;23.87;;;1.60;89.40;;;;;;5053842;28;20283;-87
2024/01/20 06:06:31;;;;;;;21.70;19.57;;;1.60;89.50;;;;;;5054119;28;20672;-87
2024/01/20 06:08:56;;;;;;;23.87;21.30;;;1.50;89.60;;;;;;5054500;28;20187;-87
2024/01/20 06:11:24;;;;;;;22.57;20.50;;;1.50;89.60;;;;;;5054704;28;20171;-87
2024/01/20 06:13:50;;;;;;;28.60;25.67;;;1.40;89.70;;;;;;5053664;28;20263;-88
2024/01/20 06:16:15;;;;;;;24.47;22.00;;;1.40;89.70;;;;;;5053502;28;20345;-87
2024/01/20 06:18:40;;;;;;;24.60;21.20;;;1.40;89.70;;;;;;5053620;28;20373;-88
2024/01/20 06:21:06;;;;;;;32.23;22.73;;;1.40;89.80;;;;;;5055041;28;20258;-87
2024/01/20 06:23:32;;;;;;;23.10;20.83;;;1.40;89.80;;;;;;5053870;28;20746;-87
2024/01/20 06:25:59;;;;;;;30.57;24.33;;;1.30;89.80;;;;;;5053961;28;20202;-87
2024/01/20 06:28:25;;;;;;;22.93;20.80;;;1.30;89.80;;;;;;5053932;28;20179;-87
2024/01/20 06:30:51;;;;;;;26.87;23.17;;;1.30;89.80;;;;;;5054625;28;20589;-87
2024/01/20 06:33:17;;;;;;;28.37;21.30;;;1.30;89.90;;;;;;5053949;28;20180;-87
2024/01/20 06:35:42;;;;;;;28.13;22.93;;;1.30;89.80;;;;;;5053761;28;20602;-87
2024/01/20 06:38:08;;;;;;;29.90;25.37;;;1.40;89.70;;;;;;5054427;28;20554;-87
2024/01/20 06:40:33;;;;;;;23.73;21.43;;;1.40;89.40;;;;;;5054645;28;20176;-87
2024/01/20 06:42:59;;;;;;;25.77;22.67;;;1.30;89.60;;;;;;5054333;28;20203;-87
2024/01/20 06:45:25;;;;;;;25.03;22.63;;;1.30;89.80;;;;;;5054496;28;20179;-87
2024/01/20 06:47:50;;;;;;;42.97;38.60;;;1.30;89.80;;;;;;5054028;28;20575;-88
2024/01/20 06:50:16;;;;;;;39.00;35.53;;;1.30;89.50;;;;;;5054482;28;20183;-88
2024/01/20 06:52:41;;;;;;;44.23;39.13;;;1.40;89.50;;;;;;5054165;28;20172;-87
2024/01/20 06:55:07;;;;;;;37.67;34.33;;;1.40;89.20;;;;;;5055247;28;20172;-87
2024/01/20 06:57:33;;;;;;;42.57;38.73;;;1.50;88.80;;;;;;5054707;28;20195;-88
2024/01/20 06:59:58;;;;;;;39.10;35.13;;;1.50;89.00;;;;;;5054238;28;20176;-88
2024/01/20 07:02:24;;;;;;;37.73;34.53;;;1.50;88.90;;;;;;5056195;28;20172;-88
2024/01/20 07:04:49;;;;;;;38.23;34.23;;;1.50;89.10;;;;;;5053548;28;20699;-88
2024/01/20 07:07:15;;;;;;;35.73;32.77;;;1.50;88.90;;;;;;5055513;28;20200;-88
2024/01/20 07:09:41;;;;;;;42.87;38.43;;;1.50;88.80;;;;;;5054900;28;20172;-88
2024/01/20 07:12:08;;;;;;;41.37;37.30;;;1.50;88.80;;;;;;5054739;28;20176;-88
2024/01/20 07:14:33;;;;;;;37.20;33.53;;;1.40;88.70;;;;;;5054574;28;20176;-87
2024/01/20 07:16:59;;;;;;;38.10;34.20;;;1.40;88.80;;;;;;5055713;28;20196;-88
2024/01/20 07:19:25;;;;;;;37.13;33.63;;;1.50;88.90;;;;;;5054596;28;20179;-88
2024/01/20 07:21:50;;;;;;;35.73;32.63;;;1.30;88.90;;;;;;5055647;28;20192;-88
2024/01/20 07:24:16;;;;;;;35.60;31.87;;;1.40;88.90;;;;;;5058630;28;20294;-87
2024/01/20 07:26:41;;;;;;;35.23;31.97;;;1.50;88.50;;;;;;5057692;28;20199;-87
2024/01/20 07:29:07;;;;;;;34.43;31.30;;;1.40;88.80;;;;;;5054870;28;20233;-87
2024/01/20 07:31:33;;;;;;;34.60;30.93;;;1.30;88.90;;;;;;5056118;28;20609;-87
2024/01/20 07:33:59;;;;;;;35.23;31.97;;;1.50;88.70;;;;;;5055303;28;20211;-87
2024/01/20 07:36:24;;;;;;;37.40;34.00;;;1.40;88.60;;;;;;5055322;28;20214;-87
2024/01/20 07:38:50;;;;;;;36.60;33.00;;;1.40;88.50;;;;;;5055681;28;20214;-87
2024/01/20 07:41:15;;;;;;;35.67;32.70;;;1.30;88.60;;;;;;5054854;28;20283;-87
2024/01/20 07:43:41;;;;;;;22.87;20.50;;;1.40;88.50;;;;;;5054704;28;20683;-87
2024/01/20 07:46:08;;;;;;;22.07;20.07;;;1.30;88.40;;;;;;5055855;28;20195;-87
2024/01/20 07:48:33;;;;;;;33.47;24.60;;;1.30;88.70;;;;;;5055009;28;20179;-86
2024/01/20 07:50:59;;;;;;;23.03;21.03;;;1.20;88.80;;;;;;5055427;28;20191;-87
2024/01/20 07:53:25;;;;;;;27.17;23.37;;;1.30;88.60;;;;;;5055830;28;20179;-86
2024/01/20 07:55:50;;;;;;;25.47;22.53;;;1.30;88.80;;;;;;5055461;28;20203;-86
2024/01/20 07:58:16;;;;;;;24.47;22.00;;;1.30;88.60;;;;;;5054878;28;20176;-87
2024/01/20 08:00:42;;;;;;;26.87;24.00;;;1.30;88.30;;;;;;5054429;28;20176;-87
2024/01/20 08:03:07;;;;;;;23.90;21.37;;;1.40;88.40;;;;;;5054422;28;20210;-87
2024/01/20 08:05:33;;;;;;;25.40;22.67;;;1.30;88.20;;;;;;5054497;28;20663;-87
2024/01/20 08:07:58;;;;;;;26.13;22.17;;;1.30;88.50;;;;;;5054434;28;20711;-87
2024/01/20 08:10:24;;;;;;;22.77;20.47;;;1.40;88.20;;;;;;5054202;28;20171;-86
2024/01/20 08:12:51;;;;;;;28.37;25.33;;;1.40;88.20;;;;;;5055474;28;20263;-86
2024/01/20 08:15:16;;;;;;;26.13;22.80;;;1.40;88.40;;;;;;5054220;28;20262;-87
2024/01/20 08:17:42;;;;;;;28.27;23.70;;;1.50;88.30;;;;;;5054035;28;20614;-87
2024/01/20 08:20:08;;;;;;;36.67;26.13;;;1.50;88.30;;;;;;5055249;28;20662;-87
2024/01/20 08:22:34;;;;;;;35.07;26.27;;;1.50;88.20;;;;;;5053951;28;20187;-86
2024/01/20 08:25:02;;;;;;;26.10;23.47;;;1.40;88.00;;;;;;5054149;28;20172;-87
2024/01/20 08:27:28;;;;;;;27.70;23.80;;;1.40;88.00;;;;;;5053929;28;20230;-87
2024/01/20 08:29:54;;;;;;;28.67;23.47;;;1.40;88.20;;;;;;5055446;28;20172;-86
2024/01/20 08:32:19;;;;;;;23.57;21.17;;;1.40;88.10;;;;;;5053779;28;20187;-87
2024/01/20 08:34:45;;;;;;;33.17;25.30;;;1.30;88.20;;;;;;5053069;28;20233;-87
2024/01/20 08:37:10;;;;;;;25.03;22.40;;;1.30;88.10;;;;;;5055398;28;20209;-87
2024/01/20 08:39:36;;;;;;;29.17;24.50;;;1.40;87.80;;;;;;5054690;28;20186;-87
2024/01/20 08:42:03;;;;;;;27.17;24.37;;;1.40;88.00;;;;;;5053745;28;20228;-87
2024/01/20 08:44:30;;;;;;;30.93;23.93;;;1.30;87.90;;;;;;5053589;28;20231;-87
2024/01/20 08:46:55;;;;;;;27.80;23.73;;;1.40;88.00;;;;;;5053521;28;20192;-87
2024/01/20 08:49:22;;;;;;;28.10;23.87;;;1.40;88.00;;;;;;5054700;28;20173;-87
2024/01/20 08:51:47;;;;;;;30.50;25.30;;;1.50;87.60;;;;;;5053556;28;20741;-87
2024/01/20 08:54:13;;;;;;;30.30;25.47;;;1.50;87.70;;;;;;5054550;28;20180;-87
2024/01/20 08:56:38;;;;;;;32.67;23.73;;;1.40;87.70;;;;;;5053365;28;20223;-87
2024/01/20 08:59:04;;;;;;;25.90;21.40;;;1.50;87.60;;;;;;5053454;28;20625;-87
2024/01/20 09:01:29;;;;;;;31.80;27.23;;;1.40;87.60;;;;;;5053209;28;20270;-87
2024/01/20 09:03:55;;;;;;;39.67;27.63;;;1.50;87.90;;;;;;5053296;28;20207;-87
2024/01/20 09:06:20;;;;;;;43.33;35.37;;;1.50;87.50;;;;;;5053143;28;20192;-87
2024/01/20 09:08:46;;;;;;;37.50;33.40;;;1.50;87.40;;;;;;5053184;28;20665;-87
2024/01/20 09:11:11;;;;;;;43.30;38.50;;;1.60;87.60;;;;;;5053468;28;20255;-87
2024/01/20 09:13:37;;;;;;;37.50;33.70;;;1.60;87.60;;;;;;5053038;28;20639;-87
2024/01/20 09:16:03;;;;;;;40.30;36.33;;;1.60;87.50;;;;;;5053069;28;20203;-87
2024/01/20 09:18:28;;;;;;;42.17;34.90;;;1.60;87.30;;;;;;5054210;28;20278;-87
2024/01/20 09:20:53;;;;;;;37.10;33.53;;;1.60;87.50;;;;;;5054228;28;20204;-87
2024/01/20 09:23:20;;;;;;;38.90;34.63;;;1.70;86.90;;;;;;5052745;28;20282;-87
2024/01/20 09:25:46;;;;;;;36.53;32.97;;;1.70;87.10;;;;;;5054058;28;20167;-87
2024/01/20 09:28:11;;;;;;;38.30;34.33;;;1.60;87.20;;;;;;5053166;28;20175;-90
2024/01/20 09:30:37;;;;;;;39.83;35.90;;;1.70;87.20;;;;;;5053901;28;20191;-88
2024/01/20 09:33:06;;;;;;;44.40;39.27;;;1.70;87.10;;;;;;5053433;28;20262;-90
2024/01/20 09:35:31;;;;;;;40.23;35.77;;;1.70;87.10;;;;;;5052638;28;20606;-87
2024/01/20 09:37:57;;;;;;;41.17;36.70;;;1.80;87.10;;;;;;5052836;28;20187;-87
2024/01/20 09:40:23;;;;;;;43.40;37.87;;;1.80;86.80;;;;;;5054060;28;20172;-87
2024/01/20 09:42:49;;;;;;;45.93;40.93;;;1.80;86.60;;;;;;5053726;28;20171;-87
2024/01/20 09:45:14;;;;;;;42.00;37.57;;;1.80;86.70;;;;;;5052207;28;20546;-87
2024/01/20 09:47:40;;;;;;;45.40;37.67;;;1.80;86.70;;;;;;5052097;28;20295;-87
2024/01/20 09:50:06;;;;;;;34.53;28.90;;;1.80;86.70;;;;;;5053672;28;20200;-88
2024/01/20 09:52:32;;;;;;;38.67;27.70;;;1.90;86.50;;;;;;5053783;28;20172;-87
2024/01/20 09:55:18;;;;;;;26.53;23.97;;;1.80;86.60;;;;;;5053056;28;20211;-87
2024/01/20 09:57:46;;;;;;;31.77;27.20;;;1.90;86.60;;;;;;5053387;28;20204;-88
2024/01/20 10:00:13;;;;;;;34.70;26.00;;;1.90;86.80;;;;;;5052900;28;20662;-87
2024/01/20 10:02:40;;;;;;;30.10;26.40;;;2.00;86.60;;;;;;5053992;28;20180;-89
2024/01/20 10:05:09;;;;;;;34.73;28.60;;;2.00;86.50;;;;;;5053436;28;20183;-87
2024/01/20 10:07:35;;;;;;;27.57;24.47;;;2.00;86.70;;;;;;5052177;28;20200;-88
2024/01/20 10:10:00;;;;;;;38.23;28.90;;;2.20;86.30;;;;;;5052537;28;20180;-88
2024/01/20 10:12:26;;;;;;;39.00;29.83;;;2.10;86.40;;;;;;5053731;28;20180;-87
2024/01/20 10:14:52;;;;;;;32.43;28.77;;;2.20;86.50;;;;;;5052478;28;20176;-87
2024/01/20 10:17:18;;;;;;;38.10;29.97;;;2.20;86.00;;;;;;5053296;28;20212;-87
2024/01/20 10:19:44;;;;;;;37.10;29.33;;;2.10;86.30;;;;;;5053067;28;20225;-87
2024/01/20 10:22:11;;;;;;;38.53;30.70;;;2.10;86.10;;;;;;5052852;28;20587;-88
2024/01/20 10:24:46;;;;;;;45.57;32.83;;;2.00;86.60;;;;;;5053166;28;20225;-88
2024/01/20 10:27:20;;;;;;;38.60;30.23;;;1.90;86.80;;;;;;5052865;28;20192;-87
2024/01/20 10:29:48;;;;;;;31.57;27.37;;;1.90;86.80;;;;;;5052764;28;20258;-87
2024/01/20 10:32:14;;;;;;;35.70;29.40;;;1.90;86.80;;;;;;5053560;28;20177;-88
2024/01/20 10:34:40;;;;;;;46.77;30.53;;;1.90;87.10;;;;;;5053660;28;20180;-87
2024/01/20 10:37:10;;;;;;;38.83;30.67;;;1.90;86.90;;;;;;5052840;28;20249;-88
2024/01/20 10:39:41;;;;;;;32.23;27.83;;;1.90;87.00;;;;;;5052808;28;20176;-87
2024/01/20 10:42:10;;;;;;;42.03;32.60;;;1.90;86.70;;;;;;5053940;28;20213;-87
2024/01/20 10:44:42;;;;;;;35.67;30.37;;;1.90;86.80;;;;;;5052827;28;20575;-87
2024/01/20 10:47:19;;;;;;;39.33;28.60;;;2.00;86.60;;;;;;5053167;28;20207;-87
2024/01/20 10:49:47;;;;;;;46.40;33.30;;;2.00;86.30;;;;;;5052966;28;20175;-87
2024/01/20 10:52:16;;;;;;;45.80;29.50;;;2.10;86.40;;;;;;5052696;28;20183;-87
2024/01/20 10:54:43;;;;;;;42.13;32.93;;;2.20;86.10;;;;;;5052924;28;20554;-87
2024/01/20 10:57:09;;;;;;;30.80;27.20;;;2.10;86.10;;;;;;5053513;28;20707;-87
2024/01/20 10:59:39;;;;;;;44.60;33.20;;;2.00;86.50;;;;;;5057282;28;20583;-87
2024/01/20 11:02:06;;;;;;;40.17;31.83;;;2.00;86.50;;;;;;5056496;28;20180;-87
2024/01/20 11:04:34;;;;;;;40.87;29.70;;;2.00;86.70;;;;;;5056387;28;20204;-87
2024/01/20 11:07:00;;;;;;;36.73;29.00;;;2.00;86.70;;;;;;5056537;28;20313;-87
2024/01/20 11:09:25;;;;;;;32.50;29.00;;;2.00;86.50;;;;;;5057260;28;20168;-87
2024/01/20 11:12:07;;;;;;;34.80;28.07;;;2.00;86.50;;;;;;5058137;28;20168;-88
2024/01/20 11:14:33;;;;;;;46.13;39.77;;;2.00;86.40;;;;;;5056548;28;20191;-87
2024/01/20 11:17:09;;;;;;;44.37;39.33;;;2.00;86.40;;;;;;5056597;28;20204;-87
2024/01/20 11:19:34;;;;;;;47.50;42.27;;;2.10;86.20;;;;;;5056550;28;20175;-87
2024/01/20 11:22:00;;;;;;;43.70;39.53;;;2.20;86.20;;;;;;5057669;28;20221;-88
2024/01/20 11:24:37;;;;;;;42.77;38.10;;;2.20;86.40;;;;;;5055193;28;20580;-89
2024/01/20 11:27:04;;;;;;;35.87;32.17;;;2.30;86.40;;;;;;5055066;28;20198;-89
2024/01/20 11:29:29;;;;;;;47.60;39.27;;;2.40;86.20;;;;;;5055019;28;20187;-89
2024/01/20 11:31:56;;;;;;;41.70;36.80;;;2.50;86.30;;;;;;5056179;28;20168;-88
2024/01/20 11:34:21;;;;;;;33.33;28.10;;;2.60;85.60;;;;;;5057043;28;20742;-88
2024/01/20 11:36:48;;;;;;;42.03;38.03;;;2.50;85.50;;;;;;5057421;28;20269;-86
2024/01/20 11:39:14;;;;;;;34.23;29.63;;;2.50;85.40;;;;;;5057850;28;20203;-86
2024/01/20 11:41:40;;;;;;;32.07;26.53;;;2.50;85.30;;;;;;5057091;28;20206;-87
2024/01/20 11:44:06;;;;;;;33.20;29.70;;;2.50;85.30;;;;;;5058169;28;20636;-87
2024/01/20 11:46:32;;;;;;;41.40;33.67;;;2.50;85.50;;;;;;5056530;28;20203;-88
2024/01/20 11:48:57;;;;;;;44.23;31.87;;;2.50;85.40;;;;;;5058145;28;20168;-87
2024/01/20 11:51:23;;;;;;;38.83;32.27;;;2.40;85.40;;;;;;5057675;28;20172;-87
2024/01/20 11:53:49;;;;;;;43.70;32.57;;;2.40;85.50;;;;;;5056720;28;20176;-88
2024/01/20 11:56:17;;;;;;;32.07;28.67;;;2.40;85.60;;;;;;5056799;28;20199;-87
2024/01/20 11:58:43;;;;;;;39.03;34.13;;;2.30;85.90;;;;;;5055895;28;20187;-87
2024/01/20 12:01:08;;;;;;;40.40;31.00;;;2.30;86.00;;;;;;5055448;28;20177;-87
2024/01/20 12:03:34;;;;;;;39.03;32.00;;;2.40;85.90;;;;;;5055242;28;20255;-88
2024/01/20 12:06:07;;;;;;;28.30;25.37;;;2.50;85.90;;;;;;5054638;28;20227;-88
2024/01/20 12:08:34;;;;;;;48.73;43.47;;;2.40;86.00;;;;;;5053842;28;20168;-88
2024/01/20 12:11:00;;;;;;;33.37;28.23;;;2.40;86.00;;;;;;5055566;28;20165;-87
2024/01/20 12:13:26;;;;;;;46.93;41.90;;;2.50;85.90;;;;;;5057563;28;20171;-87
2024/01/20 12:15:52;;;;;;;34.90;29.23;;;2.50;86.20;;;;;;5056885;28;20185;-87
2024/01/20 12:18:17;;;;;;;47.23;42.33;;;2.50;86.30;;;;;;5056568;28;20256;-87
2024/01/20 12:20:47;;;;;;;39.80;35.70;;;2.60;86.00;;;;;;5055644;28;20176;-87
2024/01/20 12:23:21;;;;;;;30.10;26.83;;;2.70;85.60;;;;;;5056468;28;20204;-87
2024/01/20 12:25:52;;;;;;;41.27;37.03;;;2.70;85.90;;;;;;5055408;28;20205;-87
2024/01/20 12:28:18;;;;;;;47.60;36.13;;;2.80;85.70;;;;;;5056772;28;20244;-88
2024/01/20 12:30:44;;;;;;;37.37;33.90;;;2.80;85.60;;;;;;5056916;28;20607;-87
2024/01/20 12:33:09;;;;;;;;;;;2.80;85.20;;;;;;5055852;28;20687;-87